Faust — SLKQ — position and weather

sailwx.info

Track history (hours):
 
Tides and Currents Weather Stations Pressure Air Temp Water Temp Dewpoint Dewpoint Depression Visibility Wind Speed Wind Dir Waves Ship Positions

Faust

Last reported at 2014-Aug-17 10:24 UTC. Time now 2014-Aug-27 23:15 UTC.
Position S 29°36' E 032°02'.
Warning: this ship's position is 10 days out of date.

Length 227.8 m; beam 32.3 m; draft 9.5 m.

Type: Cargo ship. MMSI: 266260000.

Date/timePositionNaut miles runAvg speedWind from/ knotsBaromVisibWave heightAir tempDewpointWater temp
2014-Aug-17 10:24S 29°36' E 032°02'1214.6
2014-Aug-17 09:33S 29°40' E 031°49'1414.0
2014-Aug-17 08:33S 29°43' E 031°33'1716.8
2014-Aug-17 07:33S 29°48' E 031°15'1211.9
2014-Aug-17 06:33S 29°52' E 031°02'1 0.6
2014-Aug-17 05:33S 29°52' E 031°02'0 0.0
2014-Aug-17 04:33S 29°52' E 031°02'0 0.0
2014-Aug-17 03:33S 29°52' E 031°02'0 0.0
2014-Aug-17 02:33S 29°52' E 031°02'0 0.0
2014-Aug-17 01:33S 29°52' E 031°02'0 0.0
2014-Aug-17 00:33S 29°52' E 031°02'0 0.0
2014-Aug-16 23:27S 29°52' E 031°02'0 0.0
2014-Aug-16 22:33S 29°52' E 031°02'0 0.0
2014-Aug-16 21:33S 29°52' E 031°02'0 0.0
2014-Aug-16 20:33S 29°52' E 031°02'0 0.0
2014-Aug-16 19:33S 29°52' E 031°02'0 0.0
2014-Aug-16 18:21S 29°52' E 031°02'0 0.0
2014-Aug-16 17:21S 29°52' E 031°02'0 0.0
2014-Aug-16 16:33S 29°52' E 031°02'0 0.0
2014-Aug-16 15:27S 29°52' E 031°02'0 0.0
2014-Aug-16 14:33S 29°52' E 031°02'4 4.3
2014-Aug-16 13:32S 29°49' E 031°06'7 7.0
2014-Aug-16 12:33S 29°47' E 031°13'0 0.4
2014-Aug-16 11:33S 29°47' E 031°14'1 0.6
2014-Aug-16 10:33S 29°47' E 031°14'1 0.8
2014-Aug-16 09:33S 29°47' E 031°15'1 1.3
2014-Aug-16 08:33S 29°47' E 031°16'1 0.9
2014-Aug-16 07:33S 29°48' E 031°16'1 0.9
2014-Aug-16 06:33S 29°49' E 031°16'1 0.9
2014-Aug-16 05:33S 29°48' E 031°16'0 0.1
2014-Aug-16 04:33S 29°48' E 031°16'0 0.2
2014-Aug-16 03:33S 29°48' E 031°16'0 0.2
2014-Aug-16 02:33S 29°48' E 031°16'1 0.5
2014-Aug-16 01:32S 29°48' E 031°17'1 0.7
2014-Aug-16 00:33S 29°48' E 031°16'1 0.8
2014-Aug-15 23:33S 29°47' E 031°15'2 2.3
2014-Aug-15 22:33S 29°45' E 031°16'1 0.9
2014-Aug-15 21:33S 29°44' E 031°16'1 0.8
2014-Aug-15 20:33S 29°44' E 031°17'1 0.7
2014-Aug-15 19:33S 29°44' E 031°17'1 0.9
2014-Aug-15 18:33S 29°45' E 031°17'1 0.9
2014-Aug-15 17:33S 29°46' E 031°16'0 0.4
2014-Aug-15 16:33S 29°46' E 031°16'1 1.2
2014-Aug-15 15:33S 29°46' E 031°17'1 0.8
2014-Aug-15 14:33S 29°47' E 031°18'1 0.9
2014-Aug-15 13:33S 29°47' E 031°17'1 1.0
2014-Aug-15 12:33S 29°48' E 031°16'1 1.3
2014-Aug-15 11:33S 29°48' E 031°15'3 3.1
2014-Aug-15 10:33S 29°48' E 031°18'1312.8
2014-Aug-15 09:34S 29°58' E 031°10'1413.5
2014-Aug-15 08:33S 30°10' E 031°02'1413.8
2014-Aug-15 07:33S 30°22' E 030°54'7514.3
2014-Aug-15 02:18S 31°21' E 030°01'15112.8
2014-Aug-14 14:33S 33°07' E 027°54'2912.9
2014-Aug-14 12:19S 33°24' E 027°27'1313.6
2014-Aug-14 11:21S 33°32' E 027°14'6215.0
2014-Aug-14 07:14S 33°59' E 026°07'1315.0
2014-Aug-14 06:23S 34°03' E 025°52'1515.1
2014-Aug-14 05:25S 34°08' E 025°36'1614.7
2014-Aug-14 04:20S 34°11' E 025°17'15015.1
2014-Aug-13 18:23S 34°37' E 022°17'1315.1
2014-Aug-13 17:31S 34°40' E 022°01'1615.7
2014-Aug-13 16:29S 34°42' E 021°42'3615.9
2014-Aug-13 14:13S 34°48' E 020°59'1716.3
2014-Aug-13 13:11S 34°51' E 020°39'1616.3
2014-Aug-13 12:14S 34°54' E 020°20'1716.3
2014-Aug-13 11:10S 34°56' E 019°59'1116.5
2014-Aug-13 10:29S 34°55' E 019°45'1616.7
2014-Aug-13 09:33S 34°49' E 019°28'1716.7
2014-Aug-13 08:33S 34°42' E 019°09'1716.7
2014-Aug-13 07:33S 34°36' E 018°50'1716.7
2014-Aug-13 06:33S 34°29' E 018°32'6716.8
2014-Aug-13 02:32S 33°38' E 017°39'10116.6
2014-Aug-12 20:28S 32°17' E 016°28'  
Track history (hours):
 
Tides and Currents Weather Stations Pressure Air Temp Water Temp Dewpoint Dewpoint Depression Visibility Wind Speed Wind Dir Waves Ship Positions

Faust

Last reported at 2014-Aug-17 10:24 UTC. Time now 2014-Aug-27 23:15 UTC.
Position S 29°36' E 032°02'.
Warning: this ship's position is 10 days out of date.

Length 227.8 m; beam 32.3 m; draft 9.5 m.

Type: Cargo ship. MMSI: 266260000.

Date/timePositionNaut miles runAvg speedWind from/ knotsBaromVisibWave heightAir tempDewpointWater temp
2014-Aug-17 10:24S 29°36' E 032°02'1214.6
2014-Aug-17 09:33S 29°40' E 031°49'1414.0
2014-Aug-17 08:33S 29°43' E 031°33'1716.8
2014-Aug-17 07:33S 29°48' E 031°15'1211.9
2014-Aug-17 06:33S 29°52' E 031°02'1 0.6
2014-Aug-17 05:33S 29°52' E 031°02'0 0.0
2014-Aug-17 04:33S 29°52' E 031°02'0 0.0
2014-Aug-17 03:33S 29°52' E 031°02'0 0.0
2014-Aug-17 02:33S 29°52' E 031°02'0 0.0
2014-Aug-17 01:33S 29°52' E 031°02'0 0.0
2014-Aug-17 00:33S 29°52' E 031°02'0 0.0
2014-Aug-16 23:27S 29°52' E 031°02'0 0.0
2014-Aug-16 22:33S 29°52' E 031°02'0 0.0
2014-Aug-16 21:33S 29°52' E 031°02'0 0.0
2014-Aug-16 20:33S 29°52' E 031°02'0 0.0
2014-Aug-16 19:33S 29°52' E 031°02'0 0.0
2014-Aug-16 18:21S 29°52' E 031°02'0 0.0
2014-Aug-16 17:21S 29°52' E 031°02'0 0.0
2014-Aug-16 16:33S 29°52' E 031°02'0 0.0
2014-Aug-16 15:27S 29°52' E 031°02'0 0.0
2014-Aug-16 14:33S 29°52' E 031°02'4 4.3
2014-Aug-16 13:32S 29°49' E 031°06'7 7.0
2014-Aug-16 12:33S 29°47' E 031°13'0 0.4
2014-Aug-16 11:33S 29°47' E 031°14'1 0.6
2014-Aug-16 10:33S 29°47' E 031°14'1 0.8
2014-Aug-16 09:33S 29°47' E 031°15'1 1.3
2014-Aug-16 08:33S 29°47' E 031°16'1 0.9
2014-Aug-16 07:33S 29°48' E 031°16'1 0.9
2014-Aug-16 06:33S 29°49' E 031°16'1 0.9
2014-Aug-16 05:33S 29°48' E 031°16'0 0.1
2014-Aug-16 04:33S 29°48' E 031°16'0 0.2
2014-Aug-16 03:33S 29°48' E 031°16'0 0.2
2014-Aug-16 02:33S 29°48' E 031°16'1 0.5
2014-Aug-16 01:32S 29°48' E 031°17'1 0.7
2014-Aug-16 00:33S 29°48' E 031°16'1 0.8
2014-Aug-15 23:33S 29°47' E 031°15'2 2.3
2014-Aug-15 22:33S 29°45' E 031°16'1 0.9
2014-Aug-15 21:33S 29°44' E 031°16'1 0.8
2014-Aug-15 20:33S 29°44' E 031°17'1 0.7
2014-Aug-15 19:33S 29°44' E 031°17'1 0.9
2014-Aug-15 18:33S 29°45' E 031°17'1 0.9
2014-Aug-15 17:33S 29°46' E 031°16'0 0.4
2014-Aug-15 16:33S 29°46' E 031°16'1 1.2
2014-Aug-15 15:33S 29°46' E 031°17'1 0.8
2014-Aug-15 14:33S 29°47' E 031°18'1 0.9
2014-Aug-15 13:33S 29°47' E 031°17'1 1.0
2014-Aug-15 12:33S 29°48' E 031°16'1 1.3
2014-Aug-15 11:33S 29°48' E 031°15'3 3.1
2014-Aug-15 10:33S 29°48' E 031°18'1312.8
2014-Aug-15 09:34S 29°58' E 031°10'1413.5
2014-Aug-15 08:33S 30°10' E 031°02'1413.8
2014-Aug-15 07:33S 30°22' E 030°54'7514.3
2014-Aug-15 02:18S 31°21' E 030°01'15112.8
2014-Aug-14 14:33S 33°07' E 027°54'2912.9
2014-Aug-14 12:19S 33°24' E 027°27'1313.6
2014-Aug-14 11:21S 33°32' E 027°14'6215.0
2014-Aug-14 07:14S 33°59' E 026°07'1315.0
2014-Aug-14 06:23S 34°03' E 025°52'1515.1
2014-Aug-14 05:25S 34°08' E 025°36'1614.7
2014-Aug-14 04:20S 34°11' E 025°17'15015.1
2014-Aug-13 18:23S 34°37' E 022°17'1315.1
2014-Aug-13 17:31S 34°40' E 022°01'1615.7
2014-Aug-13 16:29S 34°42' E 021°42'3615.9
2014-Aug-13 14:13S 34°48' E 020°59'1716.3
2014-Aug-13 13:11S 34°51' E 020°39'1616.3
2014-Aug-13 12:14S 34°54' E 020°20'1716.3
2014-Aug-13 11:10S 34°56' E 019°59'1116.5
2014-Aug-13 10:29S 34°55' E 019°45'1616.7
2014-Aug-13 09:33S 34°49' E 019°28'1716.7
2014-Aug-13 08:33S 34°42' E 019°09'1716.7
2014-Aug-13 07:33S 34°36' E 018°50'1716.7
2014-Aug-13 06:33S 34°29' E 018°32'6716.8
2014-Aug-13 02:32S 33°38' E 017°39'10116.6
2014-Aug-12 20:28S 32°17' E 016°28'  

Dump ship's entire track history